Time;durP1;ratioP1;P1;durP2;ratioP2;P2;SDS_P1;SDS_P2;PMS_P1;PMS_P2;Temp;Humidity;BMP_temperature;BMP_pressure;BME280_temperature;BME280_humidity;BME280_pressure;Samples;Min_cycle;Max_cycle;Signal;HPM_P1;HPM_P2
2023/06/14 00:00:07;;;;;;;5.57;4.43;;;25.90;50.90;;;;;;6185779;23;20894;-70
2023/06/14 00:02:33;;;;;;;5.10;4.60;;;25.90;50.90;;;;;;6185774;23;20490;-70
2023/06/14 00:04:59;;;;;;;4.90;4.50;;;25.90;50.90;;;;;;6185665;23;20402;-70
2023/06/14 00:07:38;;;;;;;4.83;4.40;;;26.00;51.50;;;;;;6185714;23;20148;-69
2023/06/14 00:10:04;;;;;;;5.20;4.70;;;26.00;50.90;;;;;;6185696;23;20752;-69
2023/06/14 00:12:31;;;;;;;4.20;3.80;;;26.00;51.00;;;;;;6185855;23;20415;-69
2023/06/14 00:14:56;;;;;;;5.50;4.37;;;26.00;51.00;;;;;;6185614;23;20399;-69
2023/06/14 00:17:22;;;;;;;4.30;3.70;;;25.90;50.90;;;;;;6185864;23;20382;-69
2023/06/14 00:19:48;;;;;;;5.67;4.70;;;26.00;51.00;;;;;;6186041;23;20487;-69
2023/06/14 00:22:13;;;;;;;4.33;3.90;;;26.00;51.00;;;;;;6186123;23;20156;-70
2023/06/14 00:24:39;;;;;;;6.90;5.03;;;25.90;50.90;;;;;;6185933;23;20646;-69
2023/06/14 00:27:05;;;;;;;4.87;4.07;;;25.90;50.90;;;;;;6185766;23;20167;-70
2023/06/14 00:29:31;;;;;;;4.70;4.17;;;25.90;50.90;;;;;;6185769;23;20603;-68
2023/06/14 00:31:56;;;;;;;4.20;3.80;;;25.90;50.90;;;;;;6185610;23;20175;-69
2023/06/14 00:34:22;;;;;;;6.10;5.03;;;26.00;51.00;;;;;;6186203;23;20243;-70
2023/06/14 00:36:47;;;;;;;4.47;4.07;;;26.00;51.00;;;;;;6185651;23;20151;-70
2023/06/14 00:39:13;;;;;;;4.23;3.83;;;25.90;50.90;;;;;;6185611;23;20476;-69
2023/06/14 00:41:39;;;;;;;4.30;3.90;;;25.90;50.90;;;;;;6185847;23;20152;-69
2023/06/14 00:44:05;;;;;;;4.50;4.10;;;25.90;50.90;;;;;;6185620;23;20159;-69
2023/06/14 00:46:30;;;;;;;4.60;4.20;;;25.90;50.90;;;;;;6185841;23;20399;-69
2023/06/14 00:48:58;;;;;;;3.87;3.57;;;25.90;50.90;;;;;;6185795;23;20194;-68
2023/06/14 00:51:24;;;;;;;4.27;3.87;;;25.90;50.90;;;;;;6185613;23;20167;-69
2023/06/14 00:53:51;;;;;;;4.97;4.13;;;25.90;50.90;;;;;;6185840;23;20382;-68
2023/06/14 00:56:20;;;;;;;4.93;4.17;;;25.90;50.90;;;;;;6185457;23;20643;-70
2023/06/14 00:58:46;;;;;;;5.27;4.77;;;25.90;50.90;;;;;;6185602;23;20371;-70
2023/06/14 01:01:12;;;;;;;4.10;3.70;;;25.90;51.00;;;;;;6185548;23;20722;-69
2023/06/14 01:03:39;;;;;;;3.70;3.37;;;25.90;50.90;;;;;;6185737;23;20371;-69
2023/06/14 01:06:26;;;;;;;4.10;3.63;;;25.90;50.90;;;;;;6185631;23;20183;-69
2023/06/14 01:09:09;;;;;;;4.50;3.80;;;25.90;50.90;;;;;;6186105;23;20446;-70
2023/06/14 01:11:47;;;;;;;4.23;3.80;;;25.90;50.90;;;;;;6160231;23;20426;-69
2023/06/14 01:14:14;;;;;;;4.60;3.60;;;25.90;51.00;;;;;;6186921;23;20405;-69
2023/06/14 01:16:40;;;;;;;4.63;4.17;;;25.90;51.00;;;;;;6185905;23;20458;-69
2023/06/14 01:19:13;;;;;;;4.70;4.17;;;25.90;51.00;;;;;;6159392;23;20769;-68
2023/06/14 01:21:41;;;;;;;6.00;4.50;;;25.90;51.00;;;;;;6185926;23;20371;-69
2023/06/14 01:24:11;;;;;;;4.13;3.83;;;25.90;51.00;;;;;;6184715;23;20375;-69
2023/06/14 01:26:38;;;;;;;3.60;3.30;;;25.90;51.00;;;;;;6185511;23;20886;-69
2023/06/14 01:29:04;;;;;;;3.20;2.90;;;25.90;51.00;;;;;;6156844;23;20386;-69
2023/06/14 01:31:39;;;;;;;4.53;3.60;;;25.90;50.90;;;;;;6183326;23;20504;-69
2023/06/14 01:34:05;;;;;;;4.17;3.77;;;25.90;50.90;;;;;;6184948;23;20746;-69
2023/06/14 01:36:31;;;;;;;3.80;3.37;;;25.90;50.90;;;;;;6183995;23;20422;-69
2023/06/14 01:38:59;;;;;;;3.30;3.00;;;25.90;50.90;;;;;;6184857;23;20171;-69
2023/06/14 01:41:25;;;;;;;4.77;4.27;;;25.90;50.80;;;;;;6158780;23;20387;-69
2023/06/14 01:43:52;;;;;;;3.80;3.50;;;25.90;50.80;;;;;;6185033;23;20437;-69
2023/06/14 01:46:17;;;;;;;4.53;4.07;;;25.90;50.70;;;;;;6185258;23;20499;-69
2023/06/14 01:48:43;;;;;;;5.20;4.70;;;25.90;50.70;;;;;;6185028;23;20465;-69
2023/06/14 01:51:09;;;;;;;5.67;4.57;;;25.90;50.50;;;;;;6158252;23;20639;-70
2023/06/14 01:53:36;;;;;;;4.13;3.80;;;25.90;50.50;;;;;;6158951;23;20163;-70
2023/06/14 01:56:01;;;;;;;5.07;4.57;;;25.90;50.50;;;;;;6158443;23;20195;-70
2023/06/14 01:58:27;;;;;;;4.97;4.50;;;25.90;50.40;;;;;;6185125;23;20371;-70
2023/06/14 02:00:55;;;;;;;4.90;4.40;;;25.80;50.20;;;;;;6184961;23;20600;-70
2023/06/14 02:03:21;;;;;;;5.63;5.13;;;25.80;50.20;;;;;;6185110;23;20210;-69
2023/06/14 02:05:47;;;;;;;4.77;4.17;;;25.80;50.10;;;;;;6184917;23;20399;-70
2023/06/14 02:08:12;;;;;;;5.53;4.93;;;25.80;50.10;;;;;;6185061;23;20379;-69
2023/06/14 02:10:38;;;;;;;5.23;4.73;;;25.80;50.00;;;;;;6184902;23;20476;-70
2023/06/14 02:13:04;;;;;;;5.37;4.87;;;25.80;50.00;;;;;;6185386;23;20148;-69
2023/06/14 02:15:33;;;;;;;5.20;4.00;;;25.80;50.00;;;;;;6185222;23;20171;-69
2023/06/14 02:18:00;;;;;;;4.70;4.30;;;25.80;49.90;;;;;;6184710;23;20152;-70
2023/06/14 02:20:25;;;;;;;6.00;4.77;;;25.80;50.10;;;;;;6158617;23;20367;-69
2023/06/14 02:22:51;;;;;;;4.60;4.20;;;25.80;49.80;;;;;;6185072;23;20442;-71
2023/06/14 02:25:17;;;;;;;5.03;4.60;;;25.80;49.70;;;;;;6184694;23;20559;-69
2023/06/14 02:27:42;;;;;;;5.50;5.00;;;25.80;49.70;;;;;;6184761;23;20159;-69
2023/06/14 02:30:08;;;;;;;6.00;5.23;;;25.80;49.60;;;;;;6184815;23;20151;-69
2023/06/14 02:32:35;;;;;;;5.07;4.57;;;25.80;49.60;;;;;;6184339;23;20187;-69
2023/06/14 02:35:01;;;;;;;5.23;4.73;;;25.70;49.60;;;;;;6157876;23;20414;-69
2023/06/14 02:37:26;;;;;;;5.43;4.97;;;25.70;49.60;;;;;;6184479;23;20378;-69
2023/06/14 02:39:52;;;;;;;5.57;5.00;;;25.70;49.50;;;;;;6184174;23;20702;-69
2023/06/14 02:42:18;;;;;;;4.97;4.57;;;25.70;49.50;;;;;;6184235;23;20147;-69
2023/06/14 02:44:45;;;;;;;5.00;4.53;;;25.70;49.40;;;;;;6184145;23;20266;-69
2023/06/14 02:47:10;;;;;;;5.63;4.97;;;25.70;49.30;;;;;;6184257;23;20154;-69
2023/06/14 02:49:36;;;;;;;5.70;5.20;;;25.70;49.20;;;;;;6184526;23;20453;-69
2023/06/14 02:52:02;;;;;;;5.20;4.63;;;25.70;49.00;;;;;;6184069;23;20776;-69
2023/06/14 02:54:28;;;;;;;5.93;4.77;;;25.70;48.90;;;;;;6184126;23;20192;-69
2023/06/14 02:56:53;;;;;;;5.90;5.40;;;25.70;49.00;;;;;;6157661;23;20414;-69
2023/06/14 02:59:21;;;;;;;5.70;5.20;;;25.70;49.10;;;;;;6184452;23;20144;-69
2023/06/14 03:01:46;;;;;;;5.13;4.63;;;25.70;49.10;;;;;;6184122;23;20151;-69
2023/06/14 03:04:12;;;;;;;5.10;4.70;;;25.70;49.20;;;;;;6183601;23;20422;-69
2023/06/14 03:06:39;;;;;;;5.63;5.13;;;25.70;49.20;;;;;;6184148;23;20156;-69
2023/06/14 03:09:05;;;;;;;5.40;4.90;;;25.70;49.10;;;;;;6184125;23;20156;-69
2023/06/14 03:11:32;;;;;;;5.17;4.77;;;25.60;48.90;;;;;;6182348;23;20768;-69
2023/06/14 03:13:58;;;;;;;5.77;5.27;;;25.60;49.00;;;;;;6184105;23;20148;-69
2023/06/14 03:16:24;;;;;;;5.37;4.90;;;25.70;49.50;;;;;;6184248;23;20391;-69
2023/06/14 03:18:53;;;;;;;5.27;4.80;;;25.60;48.90;;;;;;6183961;23;20754;-69
2023/06/14 03:21:20;;;;;;;5.27;4.87;;;25.60;48.90;;;;;;6184010;23;20395;-69
2023/06/14 03:23:46;;;;;;;5.53;5.03;;;25.60;49.00;;;;;;6183967;23;20371;-69
2023/06/14 03:26:14;;;;;;;5.23;4.83;;;25.60;49.00;;;;;;6183930;23;20404;-69
2023/06/14 03:28:49;;;;;;;5.40;5.00;;;25.60;49.10;;;;;;6182724;23;20387;-69
2023/06/14 03:31:16;;;;;;;5.37;4.87;;;25.60;49.00;;;;;;6184230;23;20484;-69
2023/06/14 03:33:41;;;;;;;5.10;4.70;;;25.60;48.90;;;;;;6183961;23;20449;-69
2023/06/14 03:36:07;;;;;;;6.00;5.40;;;25.60;48.80;;;;;;6184167;23;20403;-69
2023/06/14 03:38:33;;;;;;;5.07;4.57;;;25.60;48.70;;;;;;6183914;23;20159;-69
2023/06/14 03:40:58;;;;;;;5.43;4.93;;;25.60;48.70;;;;;;6183810;23;20476;-69
2023/06/14 03:43:24;;;;;;;5.30;4.90;;;25.60;48.70;;;;;;6183922;23;20421;-69
2023/06/14 03:45:50;;;;;;;6.10;5.00;;;25.60;48.80;;;;;;6183915;23;20175;-69
2023/06/14 03:48:16;;;;;;;5.50;5.00;;;25.60;48.90;;;;;;6183867;23;20839;-69
2023/06/14 03:50:42;;;;;;;5.20;4.80;;;25.60;48.90;;;;;;6183814;23;20175;-70
2023/06/14 03:53:08;;;;;;;5.73;5.23;;;25.60;49.00;;;;;;6183863;23;20188;-69
2023/06/14 03:55:34;;;;;;;5.30;4.53;;;25.60;49.00;;;;;;6183512;23;20806;-69
2023/06/14 03:58:00;;;;;;;5.17;4.77;;;25.60;49.10;;;;;;6183849;23;20375;-69
2023/06/14 04:00:26;;;;;;;4.93;4.63;;;25.60;49.10;;;;;;6157460;23;20387;-69
2023/06/14 04:02:52;;;;;;;5.10;4.60;;;25.60;49.20;;;;;;6183778;23;20151;-69
2023/06/14 04:05:19;;;;;;;5.30;4.73;;;25.60;49.10;;;;;;6183716;23;21005;-69
2023/06/14 04:07:45;;;;;;;6.50;5.47;;;25.60;49.00;;;;;;6184095;23;20513;-69
2023/06/14 04:10:12;;;;;;;5.00;4.60;;;25.60;49.60;;;;;;6183739;23;20378;-69
2023/06/14 04:12:37;;;;;;;6.27;5.70;;;25.60;49.00;;;;;;6183396;23;20521;-69
2023/06/14 04:15:06;;;;;;;4.70;4.30;;;25.60;49.00;;;;;;6184769;23;20941;-69
2023/06/14 04:17:35;;;;;;;4.50;4.10;;;25.60;49.00;;;;;;6185655;23;20144;-69
2023/06/14 04:20:03;;;;;;;5.07;4.57;;;25.60;49.00;;;;;;6185522;23;20371;-69
2023/06/14 04:22:29;;;;;;;5.63;5.13;;;25.60;49.00;;;;;;6185608;23;20426;-69
2023/06/14 04:24:57;;;;;;;5.57;5.07;;;25.60;49.00;;;;;;6185518;23;20387;-69
2023/06/14 04:27:25;;;;;;;5.00;4.60;;;25.70;49.00;;;;;;6185561;23;20152;-69
2023/06/14 04:29:59;;;;;;;4.70;4.30;;;25.70;49.20;;;;;;6185464;23;20371;-69
2023/06/14 04:32:26;;;;;;;4.60;4.20;;;25.70;49.10;;;;;;6185441;23;20410;-69
2023/06/14 04:34:55;;;;;;;5.83;4.93;;;25.70;49.00;;;;;;6185406;23;20390;-70
2023/06/14 04:37:22;;;;;;;5.07;4.57;;;25.70;49.00;;;;;;6185531;23;20371;-69
2023/06/14 04:39:48;;;;;;;5.43;4.93;;;25.70;48.90;;;;;;6185676;23;20383;-69
2023/06/14 04:42:14;;;;;;;6.23;5.00;;;25.70;49.10;;;;;;6185376;23;20850;-69
2023/06/14 04:44:44;;;;;;;5.27;4.83;;;25.70;48.90;;;;;;6184009;23;20387;-69
2023/06/14 04:47:12;;;;;;;6.53;5.37;;;25.70;48.80;;;;;;6184990;23;20162;-69
2023/06/14 04:49:38;;;;;;;4.80;4.30;;;25.70;48.70;;;;;;6185189;23;20375;-69
2023/06/14 04:52:04;;;;;;;6.90;5.30;;;25.70;48.80;;;;;;6185353;23;20730;-69
2023/06/14 04:54:31;;;;;;;5.10;4.70;;;25.70;48.80;;;;;;6185295;23;20922;-68
2023/06/14 04:56:57;;;;;;;5.67;5.13;;;25.70;48.60;;;;;;6185280;23;20485;-69
2023/06/14 04:59:25;;;;;;;5.67;5.17;;;25.70;48.60;;;;;;6185278;23;20912;-69
2023/06/14 05:01:53;;;;;;;6.23;5.33;;;25.70;48.70;;;;;;6185159;23;20159;-70
2023/06/14 05:04:19;;;;;;;5.17;4.67;;;25.70;48.70;;;;;;6185368;23;20375;-69
2023/06/14 05:06:46;;;;;;;5.80;5.23;;;25.80;48.70;;;;;;6185122;23;20390;-70
2023/06/14 05:09:13;;;;;;;5.50;4.50;;;25.70;48.70;;;;;;6184891;23;20772;-70
2023/06/14 05:11:39;;;;;;;6.30;5.40;;;25.80;48.80;;;;;;6185070;23;20924;-70
2023/06/14 05:14:06;;;;;;;5.17;4.73;;;25.70;48.80;;;;;;6158595;23;20765;-69
2023/06/14 05:16:32;;;;;;;5.03;4.50;;;25.80;48.90;;;;;;6185381;23;20394;-70
2023/06/14 05:18:58;;;;;;;5.00;4.57;;;25.80;48.90;;;;;;6184932;23;20371;-69
2023/06/14 05:21:23;;;;;;;4.37;4.03;;;25.80;49.50;;;;;;6185027;23;20378;-69
2023/06/14 05:23:50;;;;;;;5.50;4.60;;;25.80;48.90;;;;;;6184984;23;20487;-69
2023/06/14 05:26:16;;;;;;;5.47;4.97;;;25.80;48.90;;;;;;6184665;23;20299;-69
2023/06/14 05:28:41;;;;;;;5.80;5.30;;;25.80;49.00;;;;;;6184987;23;20862;-69
2023/06/14 05:31:07;;;;;;;4.90;4.50;;;25.80;48.90;;;;;;6184741;23;20230;-69
2023/06/14 05:33:32;;;;;;;5.37;4.80;;;25.80;49.00;;;;;;6184960;23;20178;-69
2023/06/14 05:35:58;;;;;;;6.87;4.90;;;25.80;48.90;;;;;;6184906;23;20178;-69
2023/06/14 05:38:24;;;;;;;5.13;4.73;;;25.80;49.00;;;;;;6184944;23;20493;-69
2023/06/14 05:40:49;;;;;;;5.23;4.73;;;25.80;49.00;;;;;;6185209;23;20148;-69
2023/06/14 05:43:15;;;;;;;5.20;4.80;;;25.80;49.00;;;;;;6184782;23;20603;-69
2023/06/14 05:45:40;;;;;;;6.17;4.63;;;25.80;49.10;;;;;;6185058;23;20190;-69
2023/06/14 05:48:06;;;;;;;4.73;4.33;;;25.80;49.30;;;;;;6184803;23;20152;-69
2023/06/14 05:50:31;;;;;;;4.97;4.57;;;25.80;49.20;;;;;;6184760;23;20159;-69
2023/06/14 05:52:57;;;;;;;4.20;3.90;;;25.80;49.30;;;;;;6184738;23;20144;-69
2023/06/14 05:55:23;;;;;;;4.80;4.40;;;25.80;49.30;;;;;;6183286;23;20179;-70
2023/06/14 05:57:48;;;;;;;4.87;4.47;;;25.80;49.40;;;;;;6184692;23;20473;-68
2023/06/14 06:00:15;;;;;;;5.33;4.90;;;25.80;49.10;;;;;;6184685;23;20226;-69
2023/06/14 06:02:45;;;;;;;7.77;4.77;;;25.80;49.00;;;;;;6184636;23;20227;-69
2023/06/14 06:05:12;;;;;;;4.73;4.33;;;25.80;49.00;;;;;;6158060;23;20407;-69
2023/06/14 06:07:42;;;;;;;5.40;4.90;;;25.80;49.00;;;;;;6184471;23;20379;-70
2023/06/14 06:10:08;;;;;;;5.70;5.20;;;25.80;48.90;;;;;;6184529;23;20393;-69
2023/06/14 06:12:33;;;;;;;5.40;4.57;;;25.80;49.00;;;;;;6184419;23;20889;-69
2023/06/14 06:15:00;;;;;;;5.07;4.67;;;25.80;48.90;;;;;;6157966;23;20399;-70
2023/06/14 06:17:26;;;;;;;4.73;4.40;;;25.80;48.80;;;;;;6184460;23;20151;-69
2023/06/14 06:19:51;;;;;;;5.27;4.87;;;25.80;48.80;;;;;;6184759;23;20378;-69
2023/06/14 06:22:17;;;;;;;4.90;4.50;;;25.80;48.90;;;;;;6184462;23;20785;-69
2023/06/14 06:24:43;;;;;;;6.10;4.80;;;25.80;48.90;;;;;;6184363;23;20250;-69
2023/06/14 06:27:08;;;;;;;5.87;5.20;;;25.80;48.90;;;;;;6184377;23;20540;-69
2023/06/14 06:29:35;;;;;;;4.83;4.33;;;25.80;48.90;;;;;;6157936;23;20183;-69
2023/06/14 06:32:01;;;;;;;5.37;4.87;;;25.80;48.80;;;;;;6184257;23;20182;-69
2023/06/14 06:34:27;;;;;;;5.13;4.63;;;25.80;48.90;;;;;;6184219;23;20387;-69
2023/06/14 06:36:52;;;;;;;5.30;4.80;;;25.80;48.90;;;;;;6184250;23;20140;-69
2023/06/14 06:39:18;;;;;;;5.17;4.73;;;25.80;48.90;;;;;;6184307;23;20859;-69
2023/06/14 06:41:44;;;;;;;5.90;4.83;;;25.80;48.90;;;;;;6184303;23;20224;-69
2023/06/14 06:44:10;;;;;;;5.60;5.07;;;25.80;48.90;;;;;;6184156;23;20411;-70
2023/06/14 06:46:39;;;;;;;4.93;4.53;;;25.80;48.90;;;;;;6184174;23;20151;-69
2023/06/14 06:49:06;;;;;;;4.93;4.17;;;25.80;48.90;;;;;;6184126;23;20370;-69
2023/06/14 06:51:31;;;;;;;5.07;4.67;;;25.80;48.90;;;;;;6184674;23;20473;-69
2023/06/14 06:53:57;;;;;;;4.57;4.10;;;25.80;48.90;;;;;;6184133;23;20839;-69
2023/06/14 06:56:23;;;;;;;4.73;4.33;;;25.80;49.00;;;;;;6184086;23;20175;-69
2023/06/14 06:58:52;;;;;;;4.70;4.30;;;25.80;49.00;;;;;;6184031;23;20587;-69
2023/06/14 07:01:19;;;;;;;6.00;4.63;;;25.80;48.90;;;;;;6184138;23;20858;-68
2023/06/14 07:03:45;;;;;;;5.00;4.50;;;25.80;49.00;;;;;;6183906;23;20386;-69
2023/06/14 07:06:11;;;;;;;5.07;4.67;;;25.80;49.00;;;;;;6183937;23;20410;-69
2023/06/14 07:08:38;;;;;;;4.70;4.30;;;25.80;49.00;;;;;;6184041;23;20862;-69
2023/06/14 07:11:05;;;;;;;5.60;5.03;;;25.80;49.00;;;;;;6183950;23;20225;-70
2023/06/14 07:13:31;;;;;;;5.27;4.77;;;25.80;49.10;;;;;;6184077;23;20367;-69
2023/06/14 07:16:00;;;;;;;4.50;4.10;;;25.80;49.10;;;;;;6183873;23;20454;-70
2023/06/14 07:18:26;;;;;;;5.03;4.60;;;25.80;49.10;;;;;;6184053;23;20369;-69
2023/06/14 07:20:53;;;;;;;5.07;4.50;;;25.80;49.20;;;;;;6183956;23;20379;-70
2023/06/14 07:23:22;;;;;;;5.27;4.43;;;25.80;49.10;;;;;;6183954;23;20379;-69
2023/06/14 07:25:48;;;;;;;5.27;4.73;;;25.80;49.20;;;;;;6183895;23;20410;-69
2023/06/14 07:28:13;;;;;;;4.70;4.30;;;25.80;49.20;;;;;;6183933;23;20370;-69
2023/06/14 07:30:39;;;;;;;4.87;4.40;;;25.80;49.20;;;;;;6183860;23;20148;-69
2023/06/14 07:33:05;;;;;;;4.83;4.33;;;25.90;49.20;;;;;;6184019;23;20144;-69
2023/06/14 07:35:31;;;;;;;5.70;4.47;;;25.90;49.30;;;;;;6183827;23;20174;-69
2023/06/14 07:37:57;;;;;;;5.87;4.67;;;25.80;49.20;;;;;;6183903;23;20431;-69
2023/06/14 07:40:22;;;;;;;4.90;4.47;;;25.90;49.20;;;;;;6183894;23;20542;-69
2023/06/14 07:42:50;;;;;;;5.73;4.73;;;25.90;49.20;;;;;;6183936;23;20152;-69
2023/06/14 07:45:15;;;;;;;5.73;5.17;;;25.80;49.30;;;;;;6183757;23;20172;-69
2023/06/14 07:47:41;;;;;;;5.70;5.00;;;25.80;49.30;;;;;;6183903;23;20804;-69
2023/06/14 07:50:07;;;;;;;4.50;4.10;;;25.90;49.30;;;;;;6185028;23;20148;-69
2023/06/14 07:52:33;;;;;;;4.37;3.97;;;25.80;49.20;;;;;;6185832;23;20186;-69
2023/06/14 07:54:58;;;;;;;5.17;4.70;;;25.80;49.30;;;;;;6185902;23;20477;-69
2023/06/14 07:57:24;;;;;;;5.70;4.43;;;25.90;49.30;;;;;;6185897;23;20163;-69
2023/06/14 07:59:50;;;;;;;6.37;5.17;;;25.90;49.30;;;;;;6185819;23;20216;-69
2023/06/14 08:02:15;;;;;;;4.77;4.37;;;25.90;49.30;;;;;;6186049;23;20213;-69
2023/06/14 08:04:42;;;;;;;4.63;4.23;;;25.90;49.30;;;;;;6185688;23;20178;-69
2023/06/14 08:07:07;;;;;;;5.33;4.80;;;25.80;49.30;;;;;;6185695;23;20158;-69
2023/06/14 08:09:33;;;;;;;5.97;4.83;;;25.80;49.30;;;;;;6185757;23;20379;-69
2023/06/14 08:12:00;;;;;;;4.63;4.23;;;25.80;49.30;;;;;;6185591;23;20172;-70
2023/06/14 08:14:25;;;;;;;7.37;4.53;;;25.80;49.30;;;;;;6185575;23;20164;-69
2023/06/14 08:16:51;;;;;;;4.90;4.40;;;25.80;49.30;;;;;;6185661;23;20402;-69
2023/06/14 08:19:17;;;;;;;5.10;4.70;;;25.90;49.30;;;;;;6186009;23;20151;-69
2023/06/14 08:21:43;;;;;;;5.23;4.73;;;25.90;49.90;;;;;;6185308;23;20610;-70
2023/06/14 08:24:12;;;;;;;7.00;5.30;;;25.90;49.40;;;;;;6185477;23;20379;-69
2023/06/14 08:26:38;;;;;;;5.30;4.80;;;25.90;49.30;;;;;;6185890;23;20481;-69
2023/06/14 08:29:05;;;;;;;5.17;4.50;;;25.90;49.30;;;;;;6185461;23;20708;-69
2023/06/14 08:31:31;;;;;;;4.37;3.97;;;25.90;49.40;;;;;;6185320;23;20452;-69
2023/06/14 08:33:57;;;;;;;5.73;5.07;;;25.90;49.30;;;;;;6185451;23;20402;-69
2023/06/14 08:36:23;;;;;;;6.13;4.53;;;25.90;49.40;;;;;;6185707;23;20390;-69
2023/06/14 08:38:48;;;;;;;6.90;5.00;;;25.90;49.30;;;;;;6184480;23;20155;-69
2023/06/14 08:41:20;;;;;;;5.17;4.63;;;25.90;49.30;;;;;;6184958;23;20239;-69
2023/06/14 08:43:46;;;;;;;5.13;4.40;;;25.90;49.40;;;;;;6185391;23;20669;-69
2023/06/14 08:46:16;;;;;;;6.20;5.00;;;25.80;49.30;;;;;;6185294;23;20422;-69
2023/06/14 08:48:43;;;;;;;5.30;4.57;;;25.90;49.40;;;;;;6185402;23;20159;-70
2023/06/14 08:51:11;;;;;;;5.00;4.50;;;25.90;49.40;;;;;;6185155;23;20477;-69
2023/06/14 08:53:41;;;;;;;4.73;4.23;;;25.90;49.40;;;;;;6185259;23;20402;-69
2023/06/14 08:56:13;;;;;;;5.27;4.73;;;25.90;49.40;;;;;;6185143;23;20802;-69
2023/06/14 08:58:44;;;;;;;4.83;4.43;;;25.90;49.40;;;;;;6185240;23;20394;-69
2023/06/14 09:01:16;;;;;;;4.70;4.23;;;25.90;49.40;;;;;;6185159;23;20366;-69
2023/06/14 09:03:42;;;;;;;4.97;4.33;;;25.90;49.40;;;;;;6185340;23;20388;-70
2023/06/14 09:06:13;;;;;;;5.00;4.50;;;25.90;49.40;;;;;;6185021;23;20400;-69
2023/06/14 09:08:42;;;;;;;5.10;4.07;;;25.80;49.40;;;;;;6185207;23;20136;-69
2023/06/14 09:11:10;;;;;;;5.90;5.17;;;25.90;49.50;;;;;;6185023;23;20421;-69
2023/06/14 09:13:36;;;;;;;4.27;3.87;;;25.90;49.50;;;;;;6185021;23;20403;-69
2023/06/14 09:16:02;;;;;;;5.50;4.57;;;25.90;49.40;;;;;;6184967;23;20393;-69
2023/06/14 09:18:47;;;;;;;5.33;4.50;;;25.90;49.50;;;;;;6185048;23;20424;-69
2023/06/14 09:21:14;;;;;;;5.40;4.40;;;25.90;49.40;;;;;;6185036;23;20371;-69
2023/06/14 09:23:45;;;;;;;5.40;4.60;;;25.90;49.50;;;;;;6184986;23;20363;-69
2023/06/14 09:26:12;;;;;;;4.00;3.60;;;25.90;49.50;;;;;;6158485;23;20407;-69
2023/06/14 09:28:49;;;;;;;5.33;4.30;;;25.80;49.50;;;;;;6184908;23;20862;-69
2023/06/14 09:31:19;;;;;;;4.37;3.97;;;25.90;49.50;;;;;;6184893;23;20463;-69
2023/06/14 09:33:49;;;;;;;5.63;4.80;;;25.90;49.50;;;;;;6185277;23;20464;-69
2023/06/14 09:36:22;;;;;;;4.37;3.97;;;25.90;49.50;;;;;;6185168;23;20387;-69
2023/06/14 09:39:08;;;;;;;5.00;4.60;;;25.90;49.50;;;;;;6184874;23;20367;-69
2023/06/14 09:41:34;;;;;;;4.67;4.07;;;25.90;49.40;;;;;;6184822;23;20803;-69
2023/06/14 09:44:02;;;;;;;4.37;3.97;;;25.90;49.50;;;;;;6185120;23;20378;-69
2023/06/14 09:46:31;;;;;;;4.40;4.00;;;25.90;49.50;;;;;;6184739;23;20405;-69
2023/06/14 09:49:00;;;;;;;7.30;4.40;;;25.90;49.50;;;;;;6184778;23;20747;-69
2023/06/14 09:51:27;;;;;;;4.37;3.97;;;25.90;49.50;;;;;;6184648;23;20419;-69
2023/06/14 09:53:55;;;;;;;4.20;3.47;;;25.90;49.50;;;;;;6184582;23;20363;-68
2023/06/14 09:56:27;;;;;;;3.90;3.50;;;25.90;49.50;;;;;;6133389;23;20473;-68
2023/06/14 09:58:56;;;;;;;4.40;4.00;;;25.90;49.50;;;;;;6184725;23;20383;-69
2023/06/14 10:01:24;;;;;;;4.10;3.70;;;25.90;49.50;;;;;;6184578;23;20433;-68
2023/06/14 10:03:54;;;;;;;5.40;3.80;;;25.90;49.50;;;;;;6184582;23;20379;-69
2023/06/14 10:06:24;;;;;;;4.97;4.30;;;25.90;49.50;;;;;;6184437;23;20394;-69
2023/06/14 10:08:52;;;;;;;4.60;3.57;;;25.90;49.60;;;;;;6184454;23;20380;-69
2023/06/14 10:11:17;;;;;;;4.43;3.73;;;25.90;49.60;;;;;;6184381;23;20909;-69
2023/06/14 10:13:43;;;;;;;4.60;4.07;;;25.90;49.60;;;;;;6184186;23;20373;-69
2023/06/14 10:16:22;;;;;;;4.63;3.50;;;25.90;49.60;;;;;;6184521;23;20199;-68
2023/06/14 10:18:50;;;;;;;4.23;3.83;;;25.90;49.60;;;;;;6184851;23;20485;-69
2023/06/14 10:21:36;;;;;;;4.37;3.97;;;25.90;49.60;;;;;;6184481;23;20375;-69
2023/06/14 10:24:06;;;;;;;6.90;4.03;;;25.90;49.60;;;;;;6184368;23;20459;-69
2023/06/14 10:26:32;;;;;;;4.07;3.60;;;25.90;49.60;;;;;;6184365;23;20366;-69
2023/06/14 10:29:07;;;;;;;4.37;3.97;;;25.90;49.60;;;;;;6184501;23;20395;-69
2023/06/14 10:31:48;;;;;;;4.00;3.57;;;25.90;49.60;;;;;;6184688;23;20171;-70
2023/06/14 10:34:27;;;;;;;4.20;3.80;;;25.90;49.60;;;;;;6184223;23;20375;-68
2023/06/14 10:37:05;;;;;;;4.03;3.63;;;25.90;49.60;;;;;;6184708;23;20367;-68
2023/06/14 10:39:32;;;;;;;4.23;3.83;;;25.90;49.60;;;;;;6184554;23;20382;-69
2023/06/14 10:41:58;;;;;;;3.50;3.20;;;25.90;49.60;;;;;;6184204;23;20416;-68
2023/06/14 10:44:23;;;;;;;4.00;3.60;;;25.90;49.60;;;;;;6184201;23;20406;-69
2023/06/14 10:46:52;;;;;;;4.00;3.37;;;25.90;49.60;;;;;;6184246;23;20791;-69
2023/06/14 10:49:41;;;;;;;5.53;3.60;;;25.90;49.60;;;;;;6184527;23;20155;-69
2023/06/14 10:52:16;;;;;;;3.60;3.30;;;25.90;49.60;;;;;;6184148;23;20496;-68
2023/06/14 10:55:01;;;;;;;4.70;4.13;;;25.90;49.60;;;;;;6183992;23;20889;-69
2023/06/14 10:57:27;;;;;;;4.17;3.77;;;25.90;49.60;;;;;;6184215;23;20367;-69
2023/06/14 10:59:55;;;;;;;3.47;3.20;;;25.90;49.70;;;;;;6184385;23;20403;-69
2023/06/14 11:02:54;;;;;;;3.63;3.33;;;25.90;49.70;;;;;;6184085;23;20371;-68
2023/06/14 11:05:27;;;;;;;4.53;3.60;;;25.90;49.60;;;;;;6184034;23;20910;-69
2023/06/14 11:08:11;;;;;;;3.87;3.47;;;25.90;49.70;;;;;;6184076;23;20752;-69
2023/06/14 11:10:39;;;;;;;3.50;3.20;;;25.90;49.60;;;;;;6184008;23;20387;-69
2023/06/14 11:13:05;;;;;;;3.50;3.20;;;25.90;49.70;;;;;;6183987;23;20458;-69
2023/06/14 11:15:32;;;;;;;3.47;3.17;;;25.90;49.70;;;;;;6184053;23;20898;-69
2023/06/14 11:18:00;;;;;;;4.20;3.17;;;25.90;49.70;;;;;;6183887;23;20371;-69
2023/06/14 11:20:27;;;;;;;4.07;3.67;;;25.90;49.70;;;;;;6183968;23;20382;-69
2023/06/14 11:22:54;;;;;;;4.33;3.83;;;25.90;49.60;;;;;;6184025;23;20382;-69
2023/06/14 11:25:19;;;;;;;3.90;3.53;;;25.90;49.60;;;;;;6183459;23;20391;-69
2023/06/14 11:27:46;;;;;;;5.70;3.37;;;25.90;49.60;;;;;;6184294;23;20604;-69
2023/06/14 11:30:14;;;;;;;3.63;3.33;;;25.90;50.20;;;;;;6183984;23;20148;-69
2023/06/14 11:32:40;;;;;;;3.50;3.20;;;25.90;49.60;;;;;;6183845;23;20414;-69
2023/06/14 11:35:07;;;;;;;3.90;3.60;;;25.90;49.60;;;;;;6183871;23;20710;-70
2023/06/14 11:37:33;;;;;;;3.83;3.30;;;25.90;49.60;;;;;;6183908;23;20376;-69
2023/06/14 11:40:00;;;;;;;4.30;3.73;;;25.90;49.60;;;;;;6184005;23;20707;-69
2023/06/14 11:42:29;;;;;;;7.00;3.40;;;25.90;49.60;;;;;;6183915;23;20234;-68
2023/06/14 11:44:55;;;;;;;3.33;3.03;;;25.90;49.60;;;;;;6183228;23;20406;-68
2023/06/14 11:47:21;;;;;;;3.90;3.50;;;25.90;49.70;;;;;;6183585;23;20405;-69
2023/06/14 11:49:47;;;;;;;3.50;3.20;;;25.90;49.60;;;;;;6183692;23;20158;-70
2023/06/14 11:52:14;;;;;;;4.00;3.60;;;25.90;49.90;;;;;;6183843;23;20535;-70
2023/06/14 11:54:40;;;;;;;5.20;4.43;;;25.90;49.60;;;;;;6184019;23;20179;-70
2023/06/14 11:57:10;;;;;;;4.57;4.17;;;25.90;49.70;;;;;;6183898;23;20355;-70
2023/06/14 11:59:39;;;;;;;9.23;4.70;;;25.90;49.70;;;;;;6157265;23;20383;-70
2023/06/14 12:02:06;;;;;;;7.47;5.23;;;25.90;49.70;;;;;;6184187;23;20386;-69
2023/06/14 12:04:32;;;;;;;8.90;5.17;;;25.90;49.70;;;;;;6184018;23;20402;-69
2023/06/14 12:07:14;;;;;;;9.27;4.83;;;25.90;49.70;;;;;;6183886;23;20371;-69
2023/06/14 12:10:07;;;;;;;7.37;5.40;;;25.90;49.70;;;;;;6157467;23;20231;-69
2023/06/14 12:12:35;;;;;;;8.10;4.97;;;25.90;49.70;;;;;;6174123;23;20427;-69
2023/06/14 12:15:03;;;;;;;12.80;5.70;;;25.90;50.30;;;;;;6183632;23;20391;-69
2023/06/14 12:17:36;;;;;;;7.03;5.23;;;25.90;49.70;;;;;;6183431;23;20367;-68
2023/06/14 12:20:11;;;;;;;9.67;5.90;;;25.90;49.70;;;;;;6183853;23;20359;-69
2023/06/14 12:22:37;;;;;;;12.70;6.07;;;25.90;49.70;;;;;;6183755;23;20355;-69
2023/06/14 12:25:04;;;;;;;9.00;6.30;;;25.90;49.70;;;;;;6183672;23;20957;-69
2023/06/14 12:27:29;;;;;;;7.60;5.63;;;25.90;49.70;;;;;;6183614;23;20379;-69
2023/06/14 12:30:02;;;;;;;8.67;5.27;;;25.90;49.70;;;;;;6183686;23;20381;-69
2023/06/14 12:32:29;;;;;;;8.97;6.07;;;26.00;49.80;;;;;;6157515;23;20631;-69
2023/06/14 12:34:55;;;;;;;9.30;5.30;;;25.90;49.70;;;;;;6182626;23;20395;-68
2023/06/14 12:37:20;;;;;;;7.63;5.67;;;25.90;49.70;;;;;;6185378;23;20711;-68
2023/06/14 12:39:46;;;;;;;7.23;5.67;;;25.90;49.80;;;;;;6185395;23;20151;-68
2023/06/14 12:42:14;;;;;;;7.57;5.73;;;25.90;50.30;;;;;;6185230;23;20178;-69
2023/06/14 12:44:40;;;;;;;7.17;5.23;;;25.90;49.70;;;;;;6185260;23;20180;-69
2023/06/14 12:47:07;;;;;;;7.77;5.27;;;25.90;49.80;;;;;;6185678;23;20850;-70
2023/06/14 12:49:33;;;;;;;8.70;5.30;;;26.00;49.80;;;;;;6185276;23;20375;-69